sensor_id;sensor_type;location;lat;lon;timestamp;temperature;humidity
32215;DHT22;18708;53.124;23.190;2023-02-01T00:01:20;0.60;99.90
32215;DHT22;18708;53.124;23.190;2023-02-01T00:03:46;0.60;99.90
32215;DHT22;18708;53.124;23.190;2023-02-01T00:06:11;0.60;99.90
32215;DHT22;18708;53.124;23.190;2023-02-01T00:08:37;0.60;99.90
32215;DHT22;18708;53.124;23.190;2023-02-01T00:11:05;0.60;99.90
32215;DHT22;18708;53.124;23.190;2023-02-01T00:13:34;0.60;99.90
32215;DHT22;18708;53.124;23.190;2023-02-01T00:16:29;0.60;99.90
32215;DHT22;18708;53.124;23.190;2023-02-01T00:19:06;0.60;99.90
32215;DHT22;18708;53.124;23.190;2023-02-01T00:21:32;0.60;99.90
32215;DHT22;18708;53.124;23.190;2023-02-01T00:24:00;0.60;99.90
32215;DHT22;18708;53.124;23.190;2023-02-01T00:26:37;0.60;99.90
32215;DHT22;18708;53.124;23.190;2023-02-01T00:29:05;0.60;99.90
32215;DHT22;18708;53.124;23.190;2023-02-01T00:31:31;0.70;99.90
32215;DHT22;18708;53.124;23.190;2023-02-01T00:33:57;0.70;99.90
32215;DHT22;18708;53.124;23.190;2023-02-01T00:36:23;0.60;99.90
32215;DHT22;18708;53.124;23.190;2023-02-01T00:38:49;0.70;99.90
32215;DHT22;18708;53.124;23.190;2023-02-01T00:41:19;0.70;99.90
32215;DHT22;18708;53.124;23.190;2023-02-01T00:43:46;0.70;99.90
32215;DHT22;18708;53.124;23.190;2023-02-01T00:46:13;0.70;99.90
32215;DHT22;18708;53.124;23.190;2023-02-01T00:48:39;0.70;99.90
32215;DHT22;18708;53.124;23.190;2023-02-01T00:51:15;0.70;99.90
32215;DHT22;18708;53.124;23.190;2023-02-01T00:53:41;0.70;99.90
32215;DHT22;18708;53.124;23.190;2023-02-01T00:56:08;0.70;99.90
32215;DHT22;18708;53.124;23.190;2023-02-01T00:58:33;0.70;99.90
32215;DHT22;18708;53.124;23.190;2023-02-01T01:03:31;0.70;99.90
32215;DHT22;18708;53.124;23.190;2023-02-01T01:06:02;0.70;99.90
32215;DHT22;18708;53.124;23.190;2023-02-01T01:08:28;0.80;99.90
32215;DHT22;18708;53.124;23.190;2023-02-01T01:10:54;0.80;99.90
32215;DHT22;18708;53.124;23.190;2023-02-01T01:13:20;0.80;99.90
32215;DHT22;18708;53.124;23.190;2023-02-01T01:15:46;0.80;99.90
32215;DHT22;18708;53.124;23.190;2023-02-01T01:18:11;0.80;99.90
32215;DHT22;18708;53.124;23.190;2023-02-01T01:20:39;0.80;99.90
32215;DHT22;18708;53.124;23.190;2023-02-01T01:23:06;0.80;99.90
32215;DHT22;18708;53.124;23.190;2023-02-01T01:25:32;0.80;99.90
32215;DHT22;18708;53.124;23.190;2023-02-01T01:27:58;0.80;99.90
32215;DHT22;18708;53.124;23.190;2023-02-01T01:30:23;0.80;99.90
32215;DHT22;18708;53.124;23.190;2023-02-01T01:32:49;0.80;99.90
32215;DHT22;18708;53.124;23.190;2023-02-01T01:35:15;0.80;99.90
32215;DHT22;18708;53.124;23.190;2023-02-01T01:37:42;0.80;99.90
32215;DHT22;18708;53.124;23.190;2023-02-01T01:40:09;0.80;99.90
32215;DHT22;18708;53.124;23.190;2023-02-01T01:42:39;0.80;99.90
32215;DHT22;18708;53.124;23.190;2023-02-01T01:45:25;0.80;99.90
32215;DHT22;18708;53.124;23.190;2023-02-01T01:48:13;0.80;99.90
32215;DHT22;18708;53.124;23.190;2023-02-01T01:50:46;0.80;99.90
32215;DHT22;18708;53.124;23.190;2023-02-01T01:53:15;0.80;99.90
32215;DHT22;18708;53.124;23.190;2023-02-01T01:55:43;0.80;99.90
32215;DHT22;18708;53.124;23.190;2023-02-01T01:58:13;0.90;99.90
32215;DHT22;18708;53.124;23.190;2023-02-01T02:00:41;0.90;99.90
32215;DHT22;18708;53.124;23.190;2023-02-01T02:03:29;0.90;99.90
32215;DHT22;18708;53.124;23.190;2023-02-01T02:05:59;1.00;99.90
32215;DHT22;18708;53.124;23.190;2023-02-01T02:08:26;1.00;99.90
32215;DHT22;18708;53.124;23.190;2023-02-01T02:10:52;1.00;99.90
32215;DHT22;18708;53.124;23.190;2023-02-01T02:13:28;1.00;99.90
32215;DHT22;18708;53.124;23.190;2023-02-01T02:19:06;1.00;99.90
32215;DHT22;18708;53.124;23.190;2023-02-01T02:27:01;1.00;99.90
32215;DHT22;18708;53.124;23.190;2023-02-01T02:39:53;1.10;99.90
32215;DHT22;18708;53.124;23.190;2023-02-01T02:42:41;1.20;99.90
32215;DHT22;18708;53.124;23.190;2023-02-01T02:48:34;1.20;99.90
32215;DHT22;18708;53.124;23.190;2023-02-01T02:51:27;1.20;99.90
32215;DHT22;18708;53.124;23.190;2023-02-01T02:54:18;1.20;99.90
32215;DHT22;18708;53.124;23.190;2023-02-01T02:57:07;1.30;99.90
32215;DHT22;18708;53.124;23.190;2023-02-01T02:59:55;1.30;99.90
32215;DHT22;18708;53.124;23.190;2023-02-01T03:02:40;1.30;99.90
32215;DHT22;18708;53.124;23.190;2023-02-01T03:05:24;1.40;99.90
32215;DHT22;18708;53.124;23.190;2023-02-01T03:13:36;1.40;99.90
32215;DHT22;18708;53.124;23.190;2023-02-01T03:19:03;1.60;99.90
32215;DHT22;18708;53.124;23.190;2023-02-01T03:24:07;1.50;99.90
32215;DHT22;18708;53.124;23.190;2023-02-01T03:26:37;1.50;99.90
32215;DHT22;18708;53.124;23.190;2023-02-01T03:29:11;1.60;99.90
32215;DHT22;18708;53.124;23.190;2023-02-01T03:31:38;1.70;99.90
32215;DHT22;18708;53.124;23.190;2023-02-01T03:34:04;1.70;99.90
32215;DHT22;18708;53.124;23.190;2023-02-01T03:36:41;1.80;99.90
32215;DHT22;18708;53.124;23.190;2023-02-01T03:39:15;1.80;99.90
32215;DHT22;18708;53.124;23.190;2023-02-01T03:41:51;1.80;99.90
32215;DHT22;18708;53.124;23.190;2023-02-01T03:47:12;1.80;99.90
32215;DHT22;18708;53.124;23.190;2023-02-01T03:49:47;1.60;99.90
32215;DHT22;18708;53.124;23.190;2023-02-01T03:52:22;1.60;99.90
32215;DHT22;18708;53.124;23.190;2023-02-01T03:54:50;1.70;99.90
32215;DHT22;18708;53.124;23.190;2023-02-01T03:57:22;1.70;99.90
32215;DHT22;18708;53.124;23.190;2023-02-01T03:59:49;1.60;99.90
32215;DHT22;18708;53.124;23.190;2023-02-01T04:02:16;1.50;99.90
32215;DHT22;18708;53.124;23.190;2023-02-01T04:04:41;1.40;99.90
32215;DHT22;18708;53.124;23.190;2023-02-01T04:07:07;1.40;99.90
32215;DHT22;18708;53.124;23.190;2023-02-01T04:09:33;1.40;99.90
32215;DHT22;18708;53.124;23.190;2023-02-01T04:11:58;1.50;99.90
32215;DHT22;18708;53.124;23.190;2023-02-01T04:14:24;1.50;99.90
32215;DHT22;18708;53.124;23.190;2023-02-01T04:16:52;1.50;99.90
32215;DHT22;18708;53.124;23.190;2023-02-01T04:19:18;1.50;99.90
32215;DHT22;18708;53.124;23.190;2023-02-01T04:21:43;1.50;99.90
32215;DHT22;18708;53.124;23.190;2023-02-01T04:24:09;1.50;99.90
32215;DHT22;18708;53.124;23.190;2023-02-01T04:26:35;1.60;99.90
32215;DHT22;18708;53.124;23.190;2023-02-01T04:29:01;1.50;99.90
32215;DHT22;18708;53.124;23.190;2023-02-01T04:31:26;1.60;99.90
32215;DHT22;18708;53.124;23.190;2023-02-01T04:33:53;1.60;99.90
32215;DHT22;18708;53.124;23.190;2023-02-01T04:36:23;1.60;99.90
32215;DHT22;18708;53.124;23.190;2023-02-01T04:38:51;1.60;99.90
32215;DHT22;18708;53.124;23.190;2023-02-01T04:41:17;1.60;99.90
32215;DHT22;18708;53.124;23.190;2023-02-01T04:43:47;1.50;99.90
32215;DHT22;18708;53.124;23.190;2023-02-01T04:46:13;1.60;99.90
32215;DHT22;18708;53.124;23.190;2023-02-01T04:48:38;1.50;99.90
32215;DHT22;18708;53.124;23.190;2023-02-01T04:51:04;1.50;99.90
32215;DHT22;18708;53.124;23.190;2023-02-01T04:53:30;1.60;99.90
32215;DHT22;18708;53.124;23.190;2023-02-01T04:55:58;1.60;99.90
32215;DHT22;18708;53.124;23.190;2023-02-01T04:58:23;1.60;99.90
32215;DHT22;18708;53.124;23.190;2023-02-01T05:00:49;1.60;99.90
32215;DHT22;18708;53.124;23.190;2023-02-01T05:03:15;1.60;99.90
32215;DHT22;18708;53.124;23.190;2023-02-01T05:05:41;1.60;99.90
32215;DHT22;18708;53.124;23.190;2023-02-01T05:08:06;1.60;99.90
32215;DHT22;18708;53.124;23.190;2023-02-01T05:10:32;1.70;99.90
32215;DHT22;18708;53.124;23.190;2023-02-01T05:12:57;1.60;99.90
32215;DHT22;18708;53.124;23.190;2023-02-01T05:15:41;1.60;99.90
32215;DHT22;18708;53.124;23.190;2023-02-01T05:18:07;1.60;99.90
32215;DHT22;18708;53.124;23.190;2023-02-01T05:20:33;1.70;99.90
32215;DHT22;18708;53.124;23.190;2023-02-01T05:22:58;1.60;99.90
32215;DHT22;18708;53.124;23.190;2023-02-01T05:25:24;1.70;99.90
32215;DHT22;18708;53.124;23.190;2023-02-01T05:27:50;1.60;99.90
32215;DHT22;18708;53.124;23.190;2023-02-01T05:30:15;1.60;99.90
32215;DHT22;18708;53.124;23.190;2023-02-01T05:32:41;1.60;99.90
32215;DHT22;18708;53.124;23.190;2023-02-01T05:35:07;1.60;99.90
32215;DHT22;18708;53.124;23.190;2023-02-01T05:37:33;1.60;99.90
32215;DHT22;18708;53.124;23.190;2023-02-01T05:39:58;1.60;99.90
32215;DHT22;18708;53.124;23.190;2023-02-01T05:42:24;1.50;99.90
32215;DHT22;18708;53.124;23.190;2023-02-01T05:44:50;1.50;99.90
32215;DHT22;18708;53.124;23.190;2023-02-01T05:47:15;1.40;99.90
32215;DHT22;18708;53.124;23.190;2023-02-01T05:49:41;1.40;99.90
32215;DHT22;18708;53.124;23.190;2023-02-01T05:52:06;1.40;99.90
32215;DHT22;18708;53.124;23.190;2023-02-01T05:54:32;1.50;99.90
32215;DHT22;18708;53.124;23.190;2023-02-01T05:56:58;1.40;99.90
32215;DHT22;18708;53.124;23.190;2023-02-01T05:59:25;1.40;99.90
32215;DHT22;18708;53.124;23.190;2023-02-01T06:01:51;1.40;99.90
32215;DHT22;18708;53.124;23.190;2023-02-01T06:04:17;1.50;99.90
32215;DHT22;18708;53.124;23.190;2023-02-01T06:06:42;1.50;99.90
32215;DHT22;18708;53.124;23.190;2023-02-01T06:09:08;1.50;99.90
32215;DHT22;18708;53.124;23.190;2023-02-01T06:11:33;1.50;99.90
32215;DHT22;18708;53.124;23.190;2023-02-01T06:14:02;1.40;99.90
32215;DHT22;18708;53.124;23.190;2023-02-01T06:16:27;1.50;99.90
32215;DHT22;18708;53.124;23.190;2023-02-01T06:18:53;1.50;99.90
32215;DHT22;18708;53.124;23.190;2023-02-01T06:21:19;1.50;99.90
32215;DHT22;18708;53.124;23.190;2023-02-01T06:23:52;1.50;99.90
32215;DHT22;18708;53.124;23.190;2023-02-01T06:26:21;1.50;99.90
32215;DHT22;18708;53.124;23.190;2023-02-01T06:28:46;1.60;99.90
32215;DHT22;18708;53.124;23.190;2023-02-01T06:31:12;1.60;99.90
32215;DHT22;18708;53.124;23.190;2023-02-01T06:33:38;1.60;99.90
32215;DHT22;18708;53.124;23.190;2023-02-01T06:36:06;1.60;99.90
32215;DHT22;18708;53.124;23.190;2023-02-01T06:38:32;1.60;99.90
32215;DHT22;18708;53.124;23.190;2023-02-01T06:41:02;1.60;99.90
32215;DHT22;18708;53.124;23.190;2023-02-01T06:43:30;1.70;99.90
32215;DHT22;18708;53.124;23.190;2023-02-01T06:46:01;1.70;99.90
32215;DHT22;18708;53.124;23.190;2023-02-01T06:48:27;1.70;99.90
32215;DHT22;18708;53.124;23.190;2023-02-01T06:50:52;1.70;99.90
32215;DHT22;18708;53.124;23.190;2023-02-01T06:53:18;1.80;99.90
32215;DHT22;18708;53.124;23.190;2023-02-01T06:56:04;1.80;99.90
32215;DHT22;18708;53.124;23.190;2023-02-01T06:58:31;1.70;99.90
32215;DHT22;18708;53.124;23.190;2023-02-01T07:00:57;1.80;99.90
32215;DHT22;18708;53.124;23.190;2023-02-01T07:03:23;1.70;99.90
32215;DHT22;18708;53.124;23.190;2023-02-01T07:05:49;1.80;99.90
32215;DHT22;18708;53.124;23.190;2023-02-01T07:08:15;1.70;99.90
32215;DHT22;18708;53.124;23.190;2023-02-01T07:10:40;1.80;99.90
32215;DHT22;18708;53.124;23.190;2023-02-01T07:13:06;1.80;99.90
32215;DHT22;18708;53.124;23.190;2023-02-01T07:15:34;1.90;99.90
32215;DHT22;18708;53.124;23.190;2023-02-01T07:18:00;1.80;99.90
32215;DHT22;18708;53.124;23.190;2023-02-01T07:20:25;1.90;99.90
32215;DHT22;18708;53.124;23.190;2023-02-01T07:22:57;1.90;99.90
32215;DHT22;18708;53.124;23.190;2023-02-01T07:25:23;2.00;99.90
32215;DHT22;18708;53.124;23.190;2023-02-01T07:27:49;2.00;99.90
32215;DHT22;18708;53.124;23.190;2023-02-01T07:30:15;2.00;99.90
32215;DHT22;18708;53.124;23.190;2023-02-01T07:32:40;2.10;99.90
32215;DHT22;18708;53.124;23.190;2023-02-01T07:35:08;2.10;99.90
32215;DHT22;18708;53.124;23.190;2023-02-01T07:37:36;2.10;99.90
32215;DHT22;18708;53.124;23.190;2023-02-01T07:40:02;2.10;99.90
32215;DHT22;18708;53.124;23.190;2023-02-01T07:42:28;2.10;99.90
32215;DHT22;18708;53.124;23.190;2023-02-01T07:44:53;2.10;99.90
32215;DHT22;18708;53.124;23.190;2023-02-01T07:47:19;2.10;99.90
32215;DHT22;18708;53.124;23.190;2023-02-01T07:49:45;2.20;99.90
32215;DHT22;18708;53.124;23.190;2023-02-01T07:52:11;2.20;99.90
32215;DHT22;18708;53.124;23.190;2023-02-01T07:54:38;2.20;99.90
32215;DHT22;18708;53.124;23.190;2023-02-01T07:57:04;2.20;99.90
32215;DHT22;18708;53.124;23.190;2023-02-01T07:59:29;2.20;99.90
32215;DHT22;18708;53.124;23.190;2023-02-01T08:01:55;2.20;99.90
32215;DHT22;18708;53.124;23.190;2023-02-01T08:04:20;2.20;99.90
32215;DHT22;18708;53.124;23.190;2023-02-01T08:06:46;2.20;99.90
32215;DHT22;18708;53.124;23.190;2023-02-01T08:09:12;2.20;99.90
32215;DHT22;18708;53.124;23.190;2023-02-01T08:11:40;2.20;99.90
32215;DHT22;18708;53.124;23.190;2023-02-01T08:14:06;2.20;99.90
32215;DHT22;18708;53.124;23.190;2023-02-01T08:16:32;2.20;99.90
32215;DHT22;18708;53.124;23.190;2023-02-01T08:19:00;2.20;99.90
32215;DHT22;18708;53.124;23.190;2023-02-01T08:21:29;2.20;99.90
32215;DHT22;18708;53.124;23.190;2023-02-01T08:24:05;2.20;99.90
32215;DHT22;18708;53.124;23.190;2023-02-01T08:26:32;2.20;99.90
32215;DHT22;18708;53.124;23.190;2023-02-01T08:28:59;2.30;99.90
32215;DHT22;18708;53.124;23.190;2023-02-01T08:31:29;2.30;99.90
32215;DHT22;18708;53.124;23.190;2023-02-01T08:33:57;2.30;99.90
32215;DHT22;18708;53.124;23.190;2023-02-01T08:36:25;2.40;99.90
32215;DHT22;18708;53.124;23.190;2023-02-01T08:38:51;2.40;99.90
32215;DHT22;18708;53.124;23.190;2023-02-01T08:41:20;2.50;99.90
32215;DHT22;18708;53.124;23.190;2023-02-01T08:43:46;2.50;99.90
32215;DHT22;18708;53.124;23.190;2023-02-01T08:46:13;2.60;99.90
32215;DHT22;18708;53.124;23.190;2023-02-01T08:48:42;2.60;99.90
32215;DHT22;18708;53.124;23.190;2023-02-01T08:51:10;2.60;99.90
32215;DHT22;18708;53.124;23.190;2023-02-01T08:53:38;2.60;99.90
32215;DHT22;18708;53.124;23.190;2023-02-01T08:56:06;2.60;99.90
32215;DHT22;18708;53.124;23.190;2023-02-01T08:58:32;2.60;99.90
32215;DHT22;18708;53.124;23.190;2023-02-01T09:01:13;2.70;99.90
32215;DHT22;18708;53.124;23.190;2023-02-01T09:03:40;2.70;99.90
32215;DHT22;18708;53.124;23.190;2023-02-01T09:06:08;2.70;99.90
32215;DHT22;18708;53.124;23.190;2023-02-01T09:08:35;2.80;99.90
32215;DHT22;18708;53.124;23.190;2023-02-01T09:11:03;2.80;99.90
32215;DHT22;18708;53.124;23.190;2023-02-01T09:13:29;2.80;99.90
32215;DHT22;18708;53.124;23.190;2023-02-01T09:15:55;2.90;99.90
32215;DHT22;18708;53.124;23.190;2023-02-01T09:18:21;2.90;99.90
32215;DHT22;18708;53.124;23.190;2023-02-01T09:20:47;2.90;99.90
32215;DHT22;18708;53.124;23.190;2023-02-01T09:23:12;3.00;99.90
32215;DHT22;18708;53.124;23.190;2023-02-01T09:25:38;3.00;99.90
32215;DHT22;18708;53.124;23.190;2023-02-01T09:28:04;3.10;99.90
32215;DHT22;18708;53.124;23.190;2023-02-01T09:30:32;3.10;99.90
32215;DHT22;18708;53.124;23.190;2023-02-01T09:32:58;3.00;99.90
32215;DHT22;18708;53.124;23.190;2023-02-01T09:35:24;3.10;99.90
32215;DHT22;18708;53.124;23.190;2023-02-01T09:37:52;3.00;99.90
32215;DHT22;18708;53.124;23.190;2023-02-01T09:40:18;3.10;99.90
32215;DHT22;18708;53.124;23.190;2023-02-01T09:43:06;3.10;99.90
32215;DHT22;18708;53.124;23.190;2023-02-01T09:48:27;3.20;99.90
32215;DHT22;18708;53.124;23.190;2023-02-01T09:50:59;3.20;99.90
32215;DHT22;18708;53.124;23.190;2023-02-01T09:53:46;3.20;99.90
32215;DHT22;18708;53.124;23.190;2023-02-01T09:56:15;3.10;99.90
32215;DHT22;18708;53.124;23.190;2023-02-01T09:58:49;3.00;99.90
32215;DHT22;18708;53.124;23.190;2023-02-01T10:01:20;2.90;99.90
32215;DHT22;18708;53.124;23.190;2023-02-01T10:03:48;2.60;99.90
32215;DHT22;18708;53.124;23.190;2023-02-01T10:09:29;2.50;99.90
32215;DHT22;18708;53.124;23.190;2023-02-01T10:18:14;2.50;99.90
32215;DHT22;18708;53.124;23.190;2023-02-01T10:26:26;2.60;99.90
32215;DHT22;18708;53.124;23.190;2023-02-01T10:29:03;2.70;99.90
32215;DHT22;18708;53.124;23.190;2023-02-01T10:31:32;2.70;99.90
32215;DHT22;18708;53.124;23.190;2023-02-01T10:34:01;2.70;99.90
32215;DHT22;18708;53.124;23.190;2023-02-01T10:36:35;2.70;99.90
32215;DHT22;18708;53.124;23.190;2023-02-01T10:39:04;2.80;99.90
32215;DHT22;18708;53.124;23.190;2023-02-01T10:41:34;2.80;99.90
32215;DHT22;18708;53.124;23.190;2023-02-01T10:44:01;2.90;99.90
32215;DHT22;18708;53.124;23.190;2023-02-01T10:46:30;2.80;99.90
32215;DHT22;18708;53.124;23.190;2023-02-01T10:48:58;2.90;99.90
32215;DHT22;18708;53.124;23.190;2023-02-01T10:51:58;2.90;99.90
32215;DHT22;18708;53.124;23.190;2023-02-01T10:54:37;2.90;99.90
32215;DHT22;18708;53.124;23.190;2023-02-01T10:57:20;2.80;99.90
32215;DHT22;18708;53.124;23.190;2023-02-01T10:59:45;2.70;99.90
32215;DHT22;18708;53.124;23.190;2023-02-01T11:02:32;2.70;99.90
32215;DHT22;18708;53.124;23.190;2023-02-01T11:05:04;2.70;99.90
32215;DHT22;18708;53.124;23.190;2023-02-01T11:07:31;2.60;99.90
32215;DHT22;18708;53.124;23.190;2023-02-01T11:09:57;2.70;99.90
32215;DHT22;18708;53.124;23.190;2023-02-01T11:12:43;2.60;99.90
32215;DHT22;18708;53.124;23.190;2023-02-01T11:15:22;2.60;99.90
32215;DHT22;18708;53.124;23.190;2023-02-01T11:17:50;2.70;99.90
32215;DHT22;18708;53.124;23.190;2023-02-01T11:20:38;2.60;99.90
32215;DHT22;18708;53.124;23.190;2023-02-01T11:23:05;2.60;99.90
32215;DHT22;18708;53.124;23.190;2023-02-01T11:25:32;2.60;99.90
32215;DHT22;18708;53.124;23.190;2023-02-01T11:28:01;2.70;99.90
32215;DHT22;18708;53.124;23.190;2023-02-01T11:30:38;2.70;99.90
32215;DHT22;18708;53.124;23.190;2023-02-01T11:33:13;2.80;99.90
32215;DHT22;18708;53.124;23.190;2023-02-01T11:35:41;2.80;99.90
32215;DHT22;18708;53.124;23.190;2023-02-01T11:38:34;2.70;99.90
32215;DHT22;18708;53.124;23.190;2023-02-01T11:41:13;2.70;99.90
32215;DHT22;18708;53.124;23.190;2023-02-01T11:43:54;2.70;99.90
32215;DHT22;18708;53.124;23.190;2023-02-01T11:46:28;2.70;99.90
32215;DHT22;18708;53.124;23.190;2023-02-01T11:48:55;2.80;99.90
32215;DHT22;18708;53.124;23.190;2023-02-01T11:56:37;2.90;99.90
32215;DHT22;18708;53.124;23.190;2023-02-01T11:59:26;2.90;99.90
32215;DHT22;18708;53.124;23.190;2023-02-01T12:10:38;3.10;99.90
32215;DHT22;18708;53.124;23.190;2023-02-01T12:16:09;3.20;99.90
32215;DHT22;18708;53.124;23.190;2023-02-01T12:27:30;3.30;99.90
32215;DHT22;18708;53.124;23.190;2023-02-01T12:35:55;3.20;99.90
32215;DHT22;18708;53.124;23.190;2023-02-01T12:38:53;3.30;99.90
32215;DHT22;18708;53.124;23.190;2023-02-01T12:41:29;3.40;99.90
32215;DHT22;18708;53.124;23.190;2023-02-01T12:46:54;3.40;99.90
32215;DHT22;18708;53.124;23.190;2023-02-01T12:49:51;3.40;99.90
32215;DHT22;18708;53.124;23.190;2023-02-01T12:52:28;3.60;99.90
32215;DHT22;18708;53.124;23.190;2023-02-01T12:57:36;3.70;99.90
32215;DHT22;18708;53.124;23.190;2023-02-01T13:03:17;3.70;99.90
32215;DHT22;18708;53.124;23.190;2023-02-01T13:05:53;3.70;99.90
32215;DHT22;18708;53.124;23.190;2023-02-01T13:08:26;3.60;99.90
32215;DHT22;18708;53.124;23.190;2023-02-01T13:11:04;3.60;99.90
32215;DHT22;18708;53.124;23.190;2023-02-01T13:16:14;3.70;99.90
32215;DHT22;18708;53.124;23.190;2023-02-01T13:18:44;3.80;99.90
32215;DHT22;18708;53.124;23.190;2023-02-01T13:21:18;3.80;99.90
32215;DHT22;18708;53.124;23.190;2023-02-01T13:23:47;3.70;99.90
32215;DHT22;18708;53.124;23.190;2023-02-01T13:26:14;3.70;99.90
32215;DHT22;18708;53.124;23.190;2023-02-01T13:34:51;3.70;99.90
32215;DHT22;18708;53.124;23.190;2023-02-01T13:43:02;3.70;99.90
32215;DHT22;18708;53.124;23.190;2023-02-01T13:45:32;3.60;99.90
32215;DHT22;18708;53.124;23.190;2023-02-01T13:48:03;3.70;99.90
32215;DHT22;18708;53.124;23.190;2023-02-01T13:50:33;3.70;99.90
32215;DHT22;18708;53.124;23.190;2023-02-01T13:53:11;3.70;99.90
32215;DHT22;18708;53.124;23.190;2023-02-01T13:55:41;3.70;99.90
32215;DHT22;18708;53.124;23.190;2023-02-01T13:58:19;3.70;99.90
32215;DHT22;18708;53.124;23.190;2023-02-01T14:00:46;3.70;99.90
32215;DHT22;18708;53.124;23.190;2023-02-01T14:03:13;3.70;99.90
32215;DHT22;18708;53.124;23.190;2023-02-01T14:08:40;3.70;99.90
32215;DHT22;18708;53.124;23.190;2023-02-01T14:11:06;3.70;99.90
32215;DHT22;18708;53.124;23.190;2023-02-01T14:13:38;3.70;99.90
32215;DHT22;18708;53.124;23.190;2023-02-01T14:21:29;3.70;99.90
32215;DHT22;18708;53.124;23.190;2023-02-01T14:26:41;3.60;99.90
32215;DHT22;18708;53.124;23.190;2023-02-01T14:31:58;3.60;99.90
32215;DHT22;18708;53.124;23.190;2023-02-01T14:37:28;3.60;99.90
32215;DHT22;18708;53.124;23.190;2023-02-01T14:42:47;3.60;99.90
32215;DHT22;18708;53.124;23.190;2023-02-01T14:56:07;3.50;99.90
32215;DHT22;18708;53.124;23.190;2023-02-01T14:58:54;3.40;99.90
32215;DHT22;18708;53.124;23.190;2023-02-01T15:01:32;3.40;99.90
32215;DHT22;18708;53.124;23.190;2023-02-01T15:04:15;3.40;99.90
32215;DHT22;18708;53.124;23.190;2023-02-01T15:06:50;3.30;99.90
32215;DHT22;18708;53.124;23.190;2023-02-01T15:15:16;3.40;99.90
32215;DHT22;18708;53.124;23.190;2023-02-01T15:17:54;3.40;99.90
32215;DHT22;18708;53.124;23.190;2023-02-01T15:20:22;3.40;99.90
32215;DHT22;18708;53.124;23.190;2023-02-01T15:23:00;3.40;99.90
32215;DHT22;18708;53.124;23.190;2023-02-01T15:25:28;3.30;99.90
32215;DHT22;18708;53.124;23.190;2023-02-01T15:27:55;3.30;99.90
32215;DHT22;18708;53.124;23.190;2023-02-01T15:32:48;3.20;99.90
32215;DHT22;18708;53.124;23.190;2023-02-01T15:35:37;3.20;99.90
32215;DHT22;18708;53.124;23.190;2023-02-01T15:43:27;3.20;99.90
32215;DHT22;18708;53.124;23.190;2023-02-01T15:46:00;3.20;99.90
32215;DHT22;18708;53.124;23.190;2023-02-01T15:48:32;3.10;99.90
32215;DHT22;18708;53.124;23.190;2023-02-01T15:50:58;3.10;99.90
32215;DHT22;18708;53.124;23.190;2023-02-01T15:53:25;3.10;99.90
32215;DHT22;18708;53.124;23.190;2023-02-01T15:56:01;3.10;99.90
32215;DHT22;18708;53.124;23.190;2023-02-01T15:58:28;3.10;99.90
32215;DHT22;18708;53.124;23.190;2023-02-01T16:01:03;3.00;99.90
32215;DHT22;18708;53.124;23.190;2023-02-01T16:03:39;3.00;99.90
32215;DHT22;18708;53.124;23.190;2023-02-01T16:06:09;3.10;99.90
32215;DHT22;18708;53.124;23.190;2023-02-01T16:08:36;3.00;99.90
32215;DHT22;18708;53.124;23.190;2023-02-01T16:13:35;3.10;99.90
32215;DHT22;18708;53.124;23.190;2023-02-01T16:16:01;3.10;99.90
32215;DHT22;18708;53.124;23.190;2023-02-01T16:18:27;3.00;99.90
32215;DHT22;18708;53.124;23.190;2023-02-01T16:20:53;3.00;99.90
32215;DHT22;18708;53.124;23.190;2023-02-01T16:23:18;3.00;99.90
32215;DHT22;18708;53.124;23.190;2023-02-01T16:25:46;2.90;99.90
32215;DHT22;18708;53.124;23.190;2023-02-01T16:28:12;2.90;99.90
32215;DHT22;18708;53.124;23.190;2023-02-01T16:30:37;2.90;99.90
32215;DHT22;18708;53.124;23.190;2023-02-01T16:33:03;2.80;99.90
32215;DHT22;18708;53.124;23.190;2023-02-01T16:35:33;2.80;99.90
32215;DHT22;18708;53.124;23.190;2023-02-01T16:38:04;2.80;99.90
32215;DHT22;18708;53.124;23.190;2023-02-01T16:40:34;2.90;99.90
32215;DHT22;18708;53.124;23.190;2023-02-01T16:42:59;2.80;99.90
32215;DHT22;18708;53.124;23.190;2023-02-01T16:45:25;2.90;99.90
32215;DHT22;18708;53.124;23.190;2023-02-01T16:47:54;2.80;99.90
32215;DHT22;18708;53.124;23.190;2023-02-01T16:50:22;2.80;99.90
32215;DHT22;18708;53.124;23.190;2023-02-01T16:52:49;2.90;99.90
32215;DHT22;18708;53.124;23.190;2023-02-01T16:55:17;2.90;99.90
32215;DHT22;18708;53.124;23.190;2023-02-01T16:57:43;2.90;99.90
32215;DHT22;18708;53.124;23.190;2023-02-01T17:00:11;2.90;99.90
32215;DHT22;18708;53.124;23.190;2023-02-01T17:02:37;2.80;99.90
32215;DHT22;18708;53.124;23.190;2023-02-01T17:05:04;2.80;99.90
32215;DHT22;18708;53.124;23.190;2023-02-01T17:07:30;2.90;99.90
32215;DHT22;18708;53.124;23.190;2023-02-01T17:09:56;2.90;99.90
32215;DHT22;18708;53.124;23.190;2023-02-01T17:12:27;2.90;99.90
32215;DHT22;18708;53.124;23.190;2023-02-01T17:14:53;3.00;99.90
32215;DHT22;18708;53.124;23.190;2023-02-01T17:17:20;2.90;99.90
32215;DHT22;18708;53.124;23.190;2023-02-01T17:19:49;3.00;99.90
32215;DHT22;18708;53.124;23.190;2023-02-01T17:22:18;3.00;99.90
32215;DHT22;18708;53.124;23.190;2023-02-01T17:24:45;3.00;99.90
32215;DHT22;18708;53.124;23.190;2023-02-01T17:27:10;3.10;99.90
32215;DHT22;18708;53.124;23.190;2023-02-01T17:29:36;3.10;99.90
32215;DHT22;18708;53.124;23.190;2023-02-01T17:32:04;3.10;99.90
32215;DHT22;18708;53.124;23.190;2023-02-01T17:34:30;3.10;99.90
32215;DHT22;18708;53.124;23.190;2023-02-01T17:36:56;3.20;99.90
32215;DHT22;18708;53.124;23.190;2023-02-01T17:39:21;3.10;99.90
32215;DHT22;18708;53.124;23.190;2023-02-01T17:42:10;3.10;99.90
32215;DHT22;18708;53.124;23.190;2023-02-01T17:44:35;3.10;99.90
32215;DHT22;18708;53.124;23.190;2023-02-01T17:47:03;3.10;99.90
32215;DHT22;18708;53.124;23.190;2023-02-01T17:49:29;3.10;99.90
32215;DHT22;18708;53.124;23.190;2023-02-01T17:51:56;3.10;99.90
32215;DHT22;18708;53.124;23.190;2023-02-01T17:54:21;3.10;99.90
32215;DHT22;18708;53.124;23.190;2023-02-01T17:56:47;3.20;99.90
32215;DHT22;18708;53.124;23.190;2023-02-01T17:59:14;3.20;99.90
32215;DHT22;18708;53.124;23.190;2023-02-01T18:01:40;3.10;99.90
32215;DHT22;18708;53.124;23.190;2023-02-01T18:04:10;3.10;99.90
32215;DHT22;18708;53.124;23.190;2023-02-01T18:06:37;3.10;99.90
32215;DHT22;18708;53.124;23.190;2023-02-01T18:09:03;3.20;99.90
32215;DHT22;18708;53.124;23.190;2023-02-01T18:11:29;3.20;99.90
32215;DHT22;18708;53.124;23.190;2023-02-01T18:13:57;3.20;99.90
32215;DHT22;18708;53.124;23.190;2023-02-01T18:16:29;3.20;99.90
32215;DHT22;18708;53.124;23.190;2023-02-01T18:18:55;3.20;99.90
32215;DHT22;18708;53.124;23.190;2023-02-01T18:21:36;3.20;99.90
32215;DHT22;18708;53.124;23.190;2023-02-01T18:24:03;3.30;99.90